createdAt,value
2023-08-11T00:02:02.559Z,99.90
2023-08-11T00:05:26.686Z,99.90
2023-08-11T00:08:50.209Z,99.90
2023-08-11T00:12:15.107Z,99.90
2023-08-11T00:15:41.157Z,99.90
2023-08-11T00:19:04.924Z,99.90
2023-08-11T00:22:28.810Z,99.90
2023-08-11T00:25:52.460Z,99.90
2023-08-11T00:29:17.398Z,99.90
2023-08-11T00:32:41.095Z,99.90
2023-08-11T00:36:05.131Z,99.90
2023-08-11T00:39:28.702Z,99.90
2023-08-11T00:42:52.400Z,99.90
2023-08-11T00:46:17.562Z,99.90
2023-08-11T00:49:41.726Z,99.90
2023-08-11T00:53:06.139Z,99.90
2023-08-11T00:56:29.801Z,99.90
2023-08-11T00:59:53.633Z,99.90
2023-08-11T01:03:20.132Z,99.90
2023-08-11T01:06:47.122Z,99.90
2023-08-11T01:10:20.546Z,99.90
2023-08-11T01:13:47.778Z,99.90
2023-08-11T01:17:13.201Z,99.90
2023-08-11T01:20:38.815Z,99.90
2023-08-11T01:24:05.020Z,99.90
2023-08-11T01:27:30.132Z,99.90
2023-08-11T01:30:53.744Z,99.90
2023-08-11T01:34:17.294Z,99.90
2023-08-11T01:37:40.873Z,99.90
2023-08-11T01:41:08.695Z,99.90
2023-08-11T01:44:32.509Z,99.90
2023-08-11T01:47:56.332Z,99.90
2023-08-11T01:51:20.060Z,99.90
2023-08-11T01:54:44.636Z,99.90
2023-08-11T01:58:09.937Z,99.90
2023-08-11T02:01:33.678Z,99.90
2023-08-11T02:04:57.301Z,99.90
2023-08-11T02:08:20.886Z,99.90
2023-08-11T02:11:45.599Z,99.90
2023-08-11T02:15:12.372Z,99.90
2023-08-11T02:18:35.967Z,99.90
2023-08-11T02:21:59.548Z,99.90
2023-08-11T02:25:25.653Z,99.90
2023-08-11T02:28:49.232Z,99.90
2023-08-11T02:32:14.190Z,99.90
2023-08-11T02:35:38.398Z,99.90
2023-08-11T02:39:02.057Z,99.90
2023-08-11T02:42:26.575Z,99.90
2023-08-11T02:45:50.234Z,99.90
2023-08-11T02:49:15.246Z,99.90
2023-08-11T02:52:39.577Z,99.90
2023-08-11T02:56:07.560Z,99.90
2023-08-11T02:59:31.222Z,99.90
2023-08-11T03:02:54.912Z,99.90
2023-08-11T03:06:19.955Z,99.90
2023-08-11T03:09:43.933Z,99.90
2023-08-11T03:13:07.802Z,99.90
2023-08-11T03:16:33.566Z,99.90
2023-08-11T03:19:57.352Z,99.90
2023-08-11T03:23:22.666Z,99.90
2023-08-11T03:26:46.389Z,99.90
2023-08-11T03:30:11.813Z,99.90
2023-08-11T03:33:37.338Z,99.90
2023-08-11T03:37:06.492Z,99.90
2023-08-11T03:40:31.598Z,99.90
2023-08-11T03:43:56.010Z,99.90
2023-08-11T03:47:21.846Z,99.90
2023-08-11T03:50:46.696Z,99.90
2023-08-11T03:54:11.930Z,99.90
2023-08-11T03:57:37.037Z,99.90
2023-08-11T04:01:01.031Z,99.90
2023-08-11T04:04:25.008Z,99.90
2023-08-11T04:07:48.654Z,99.90
2023-08-11T04:11:12.241Z,99.90
2023-08-11T04:14:37.240Z,99.90
2023-08-11T04:18:00.860Z,99.90
2023-08-11T04:21:25.153Z,99.90
2023-08-11T04:24:48.771Z,99.90
2023-08-11T04:28:13.712Z,99.90
2023-08-11T04:31:38.740Z,99.90
2023-08-11T04:35:05.105Z,99.90
2023-08-11T04:38:28.869Z,99.90
2023-08-11T04:41:52.486Z,99.90
2023-08-11T04:45:16.974Z,99.90
2023-08-11T04:48:43.366Z,99.90
2023-08-11T04:52:07.190Z,99.90
2023-08-11T04:55:32.265Z,99.90
2023-08-11T04:58:58.104Z,99.90
2023-08-11T05:02:22.430Z,99.90
2023-08-11T05:05:47.814Z,99.90
2023-08-11T05:09:11.562Z,99.90
2023-08-11T05:12:35.578Z,99.90
2023-08-11T05:15:59.307Z,99.90
2023-08-11T05:19:22.948Z,99.90
2023-08-11T05:22:48.824Z,99.90
2023-08-11T05:26:12.399Z,99.90
2023-08-11T05:29:36.008Z,99.90
2023-08-11T05:32:59.665Z,99.90
2023-08-11T05:36:23.350Z,99.90
2023-08-11T05:39:48.349Z,99.90
2023-08-11T05:43:11.940Z,99.90
2023-08-11T05:46:35.581Z,99.90
2023-08-11T05:49:59.238Z,99.90
2023-08-11T05:53:22.791Z,99.90
2023-08-11T05:56:47.684Z,99.90
2023-08-11T06:00:12.803Z,99.90
2023-08-11T06:03:40.054Z,99.90
2023-08-11T06:07:03.836Z,99.90
2023-08-11T06:10:27.919Z,99.90
2023-08-11T06:13:52.827Z,99.90
2023-08-11T06:17:16.594Z,99.90
2023-08-11T06:20:41.915Z,99.90
2023-08-11T06:24:06.480Z,99.90
2023-08-11T06:27:30.964Z,99.90
2023-08-11T06:30:58.378Z,99.90
2023-08-11T06:34:23.235Z,99.90
2023-08-11T06:37:46.804Z,99.90
2023-08-11T06:41:10.419Z,99.90
2023-08-11T06:44:33.997Z,99.90
2023-08-11T06:47:59.034Z,99.90
2023-08-11T06:51:22.671Z,99.90
2023-08-11T06:54:46.289Z,99.90
2023-08-11T06:58:09.866Z,99.90
2023-08-11T07:01:34.018Z,99.90
2023-08-11T07:04:58.976Z,99.90
2023-08-11T07:08:22.591Z,99.90
2023-08-11T07:11:46.144Z,99.90
2023-08-11T07:15:11.117Z,99.30
2023-08-11T07:18:34.700Z,98.00
2023-08-11T07:21:59.633Z,96.50
2023-08-11T07:25:23.383Z,95.70
2023-08-11T07:28:47.559Z,94.10
2023-08-11T07:32:11.393Z,94.20
2023-08-11T07:35:35.093Z,93.40
2023-08-11T07:39:12.688Z,94.00
2023-08-11T07:42:41.132Z,93.90
2023-08-11T07:46:07.276Z,91.60
2023-08-11T07:49:31.187Z,88.90
2023-08-11T07:52:55.143Z,91.00
2023-08-11T07:56:20.373Z,91.60
2023-08-11T07:59:44.154Z,91.90
2023-08-11T08:03:08.154Z,91.30
2023-08-11T08:06:32.014Z,90.80
2023-08-11T08:09:55.624Z,92.00
2023-08-11T08:13:20.734Z,90.30
2023-08-11T08:16:46.055Z,89.70
2023-08-11T08:20:10.933Z,90.10
2023-08-11T08:23:34.792Z,86.90
2023-08-11T08:26:58.480Z,87.30
2023-08-11T08:30:23.609Z,87.20
2023-08-11T08:33:50.220Z,87.40
2023-08-11T08:37:14.371Z,87.90
2023-08-11T08:40:38.329Z,88.70
2023-08-11T08:44:03.145Z,88.10
2023-08-11T08:47:28.801Z,85.40
2023-08-11T08:50:52.753Z,83.50
2023-08-11T08:54:17.103Z,83.40
2023-08-11T08:57:41.643Z,82.10
2023-08-11T09:01:08.013Z,80.00
2023-08-11T09:04:33.899Z,80.40
2023-08-11T09:07:57.885Z,76.10
2023-08-11T09:11:22.841Z,75.70
2023-08-11T09:14:46.747Z,77.20
2023-08-11T09:18:10.541Z,77.00
2023-08-11T09:21:36.027Z,77.20
2023-08-11T09:24:59.828Z,74.60
2023-08-11T09:28:23.595Z,72.10
2023-08-11T09:31:49.917Z,69.10
2023-08-11T09:35:14.556Z,67.10
2023-08-11T09:38:39.622Z,65.40
2023-08-11T09:42:04.392Z,65.40
2023-08-11T09:45:28.463Z,65.40
2023-08-11T09:48:54.463Z,64.50
2023-08-11T09:52:20.699Z,63.90
2023-08-11T09:55:47.838Z,61.30
2023-08-11T09:59:14.972Z,61.10
2023-08-11T10:02:41.219Z,56.60
2023-08-11T10:06:07.102Z,57.30
2023-08-11T10:09:32.834Z,57.10
2023-08-11T10:13:05.107Z,57.60
2023-08-11T10:16:29.397Z,58.20
2023-08-11T10:19:53.403Z,58.60
2023-08-11T10:23:17.931Z,57.20
2023-08-11T10:26:42.583Z,55.50
2023-08-11T10:30:10.250Z,56.00
2023-08-11T10:33:34.193Z,55.60
2023-08-11T10:36:58.929Z,54.10
2023-08-11T10:40:23.030Z,56.90
2023-08-11T10:43:50.482Z,57.50
2023-08-11T10:47:15.589Z,57.10
2023-08-11T10:50:40.504Z,57.10
2023-08-11T10:54:11.370Z,57.80
2023-08-11T10:57:36.486Z,58.30
2023-08-11T11:01:01.129Z,58.90
2023-08-11T11:04:30.727Z,60.60
2023-08-11T11:07:55.799Z,63.50
2023-08-11T11:11:19.689Z,62.40
2023-08-11T11:14:43.541Z,63.40
2023-08-11T11:18:08.405Z,64.60
2023-08-11T11:21:33.859Z,65.30
2023-08-11T11:25:01.816Z,66.70
2023-08-11T11:28:25.823Z,68.30
2023-08-11T11:31:49.584Z,67.40
2023-08-11T11:35:14.702Z,69.00
2023-08-11T11:38:40.045Z,69.80
2023-08-11T11:42:08.645Z,70.70
2023-08-11T11:45:32.713Z,70.60
2023-08-11T11:48:56.889Z,71.80
2023-08-11T11:52:20.526Z,71.80
2023-08-11T11:55:49.350Z,71.70
2023-08-11T11:59:13.668Z,71.50
2023-08-11T12:02:37.339Z,71.70
2023-08-11T12:06:01.032Z,71.00
2023-08-11T12:09:24.754Z,72.70
2023-08-11T12:12:59.480Z,72.90
2023-08-11T12:16:23.370Z,72.20
2023-08-11T12:19:47.777Z,72.10
2023-08-11T12:23:11.675Z,73.40
2023-08-11T12:26:35.276Z,74.60
2023-08-11T12:30:00.417Z,75.30
2023-08-11T12:33:24.411Z,73.70
2023-08-11T12:36:48.174Z,73.90
2023-08-11T12:40:12.948Z,74.50
2023-08-11T12:43:36.643Z,74.80
2023-08-11T12:47:01.681Z,74.90
2023-08-11T12:50:29.311Z,74.80
2023-08-11T12:53:53.027Z,75.90
2023-08-11T12:57:16.896Z,75.50
2023-08-11T13:00:40.605Z,75.90
2023-08-11T13:04:07.981Z,75.30
2023-08-11T13:07:31.824Z,76.30
2023-08-11T13:10:55.486Z,74.30
2023-08-11T13:14:19.177Z,73.30
2023-08-11T13:17:45.479Z,74.80
2023-08-11T13:21:10.613Z,74.90
2023-08-11T13:24:36.099Z,75.10
2023-08-11T13:27:59.837Z,75.20
2023-08-11T13:31:23.531Z,75.60
2023-08-11T13:34:47.225Z,74.50
2023-08-11T13:38:12.891Z,76.50
2023-08-11T13:41:36.613Z,74.10
2023-08-11T13:45:00.599Z,74.40
2023-08-11T13:48:25.176Z,75.30
2023-08-11T13:51:49.113Z,75.60
2023-08-11T13:55:14.194Z,75.10
2023-08-11T13:58:38.111Z,75.00
2023-08-11T14:02:02.146Z,75.50
2023-08-11T14:05:25.994Z,75.40
2023-08-11T14:08:49.817Z,76.20
2023-08-11T14:12:15.915Z,75.70
2023-08-11T14:15:39.721Z,77.00
2023-08-11T14:19:03.423Z,76.50
2023-08-11T14:22:27.034Z,76.20
2023-08-11T14:25:50.947Z,76.80
2023-08-11T14:29:15.959Z,77.70
2023-08-11T14:32:39.777Z,77.00
2023-08-11T14:36:04.027Z,77.30
2023-08-11T14:39:36.203Z,77.40
2023-08-11T14:43:00.182Z,77.60
2023-08-11T14:46:25.487Z,77.60
2023-08-11T14:49:49.089Z,77.90
2023-08-11T14:53:13.610Z,78.00
2023-08-11T14:56:37.352Z,78.30
2023-08-11T15:00:00.985Z,79.10
2023-08-11T15:03:26.915Z,78.90
2023-08-11T15:06:50.788Z,79.40
2023-08-11T15:10:14.518Z,78.00
2023-08-11T15:13:38.149Z,76.30
2023-08-11T15:17:01.863Z,78.60
2023-08-11T15:20:27.065Z,78.20
2023-08-11T15:23:50.671Z,77.70
2023-08-11T15:27:17.282Z,75.80
2023-08-11T15:30:41.041Z,74.10
2023-08-11T15:34:05.023Z,73.40
2023-08-11T15:37:30.258Z,74.10
2023-08-11T15:40:54.173Z,73.50
2023-08-11T15:44:20.203Z,74.20
2023-08-11T15:47:45.236Z,73.30
2023-08-11T15:51:08.904Z,74.70
2023-08-11T15:54:33.965Z,73.80
2023-08-11T15:57:57.548Z,74.60
2023-08-11T16:01:21.180Z,74.80
2023-08-11T16:04:44.741Z,74.10
2023-08-11T16:08:08.480Z,74.40
2023-08-11T16:11:33.569Z,73.70
2023-08-11T16:14:57.452Z,74.40
2023-08-11T16:18:21.192Z,75.90
2023-08-11T16:21:46.423Z,75.00
2023-08-11T16:25:10.516Z,74.90
2023-08-11T16:28:35.719Z,75.00
2023-08-11T16:31:59.418Z,75.40
2023-08-11T16:35:23.257Z,75.30
2023-08-11T16:38:46.868Z,75.60
2023-08-11T16:42:10.763Z,75.60
2023-08-11T16:45:36.117Z,75.60
2023-08-11T16:48:59.722Z,75.80
2023-08-11T16:52:23.381Z,76.50
2023-08-11T16:55:47.038Z,76.40
2023-08-11T16:59:10.950Z,76.90
2023-08-11T17:02:36.053Z,77.60
2023-08-11T17:05:59.773Z,77.90
2023-08-11T17:09:23.668Z,77.80
2023-08-11T17:12:51.221Z,78.00
2023-08-11T17:16:16.257Z,77.80
2023-08-11T17:19:41.310Z,79.00
2023-08-11T17:23:05.296Z,79.30
2023-08-11T17:26:28.849Z,79.10
2023-08-11T17:29:52.547Z,79.40
2023-08-11T17:33:16.193Z,79.00
2023-08-11T17:36:41.265Z,79.40
2023-08-11T17:40:05.560Z,79.10
2023-08-11T17:43:29.174Z,79.40
2023-08-11T17:46:52.976Z,80.10
2023-08-11T17:50:16.854Z,80.00
2023-08-11T17:53:43.898Z,80.40
2023-08-11T17:57:09.314Z,81.30
2023-08-11T18:00:32.944Z,81.50
2023-08-11T18:03:56.832Z,82.10
2023-08-11T18:07:20.554Z,82.50
2023-08-11T18:10:45.649Z,83.10
2023-08-11T18:14:09.316Z,83.20
2023-08-11T18:17:33.008Z,83.90
2023-08-11T18:20:59.644Z,84.00
2023-08-11T18:24:25.768Z,85.10
2023-08-11T18:27:50.746Z,86.70
2023-08-11T18:31:14.531Z,87.90
2023-08-11T18:34:38.223Z,88.80
2023-08-11T18:38:01.888Z,89.90
2023-08-11T18:41:25.625Z,90.90
2023-08-11T18:44:50.827Z,91.40
2023-08-11T18:48:15.732Z,92.10
2023-08-11T18:51:41.243Z,91.90
2023-08-11T18:55:05.137Z,92.10
2023-08-11T18:58:28.766Z,92.70
2023-08-11T19:01:53.978Z,93.40
2023-08-11T19:05:17.944Z,93.80
2023-08-11T19:08:41.682Z,93.90
2023-08-11T19:12:06.088Z,94.10
2023-08-11T19:15:29.894Z,94.50
2023-08-11T19:18:54.978Z,94.80
2023-08-11T19:22:20.375Z,95.10
2023-08-11T19:25:44.173Z,95.60
2023-08-11T19:29:08.061Z,96.30
2023-08-11T19:32:31.745Z,96.80
2023-08-11T19:35:56.760Z,97.20
2023-08-11T19:39:20.486Z,97.70
2023-08-11T19:42:44.090Z,98.10
2023-08-11T19:46:07.873Z,98.80
2023-08-11T19:49:31.508Z,99.10
2023-08-11T19:52:56.676Z,99.80
2023-08-11T19:56:20.275Z,99.90
2023-08-11T19:59:43.920Z,99.90
2023-08-11T20:03:08.535Z,99.90
2023-08-11T20:06:32.481Z,99.90
2023-08-11T20:09:57.445Z,99.90
2023-08-11T20:13:21.558Z,99.90
2023-08-11T20:16:46.248Z,99.90
2023-08-11T20:20:10.767Z,99.90
2023-08-11T20:23:35.662Z,99.90
2023-08-11T20:27:00.600Z,99.90
2023-08-11T20:30:24.282Z,99.90
2023-08-11T20:33:48.091Z,99.90
2023-08-11T20:37:12.368Z,99.90
2023-08-11T20:40:36.312Z,99.90
2023-08-11T20:44:01.475Z,99.90
2023-08-11T20:47:25.290Z,99.90
2023-08-11T20:50:52.910Z,99.90
2023-08-11T20:54:16.703Z,99.90
2023-08-11T20:57:40.300Z,99.90
2023-08-11T21:01:05.367Z,99.90
2023-08-11T21:04:29.052Z,99.90
2023-08-11T21:07:52.707Z,99.90
2023-08-11T21:11:16.783Z,99.90
2023-08-11T21:14:40.382Z,99.90
2023-08-11T21:18:06.237Z,99.90
2023-08-11T21:21:29.971Z,99.90
2023-08-11T21:24:53.668Z,99.90
2023-08-11T21:28:17.658Z,99.90
2023-08-11T21:31:41.365Z,99.90
2023-08-11T21:35:06.890Z,99.90
2023-08-11T21:38:30.523Z,99.90
2023-08-11T21:41:54.272Z,99.90
2023-08-11T21:45:18.892Z,99.90
2023-08-11T21:48:42.525Z,99.90
2023-08-11T21:52:09.068Z,99.90
2023-08-11T21:55:32.861Z,99.90
2023-08-11T21:58:56.445Z,99.90
2023-08-11T22:02:20.110Z,99.90
2023-08-11T22:05:44.012Z,99.90
2023-08-11T22:09:09.103Z,99.90
2023-08-11T22:12:32.831Z,99.90
2023-08-11T22:15:56.472Z,99.90
2023-08-11T22:19:20.505Z,99.90
2023-08-11T22:22:44.211Z,99.90
2023-08-11T22:26:09.524Z,99.90
2023-08-11T22:29:33.209Z,99.90
2023-08-11T22:32:57.139Z,99.90
2023-08-11T22:36:22.400Z,99.90
2023-08-11T22:39:52.463Z,99.90
2023-08-11T22:43:17.659Z,99.90
2023-08-11T22:46:42.017Z,99.90
2023-08-11T22:50:09.849Z,99.90
2023-08-11T22:53:34.136Z,99.90
2023-08-11T22:56:58.044Z,99.90
2023-08-11T23:00:26.012Z,99.90
2023-08-11T23:03:50.096Z,99.90
2023-08-11T23:07:14.445Z,99.90
2023-08-11T23:10:39.019Z,99.90
2023-08-11T23:14:03.093Z,99.90
2023-08-11T23:17:31.728Z,99.90
2023-08-11T23:20:56.545Z,99.90
2023-08-11T23:24:21.013Z,99.90
2023-08-11T23:27:45.139Z,99.90
2023-08-11T23:31:09.390Z,99.90
2023-08-11T23:34:34.420Z,99.90
2023-08-11T23:37:58.084Z,99.90
2023-08-11T23:41:24.167Z,99.90
2023-08-11T23:44:47.764Z,99.90
2023-08-11T23:48:12.325Z,99.90
2023-08-11T23:51:37.961Z,99.90
2023-08-11T23:55:05.709Z,99.90
2023-08-11T23:58:30.126Z,99.90
